Time;durP1;ratioP1;P1;durP2;ratioP2;P2;SDS_P1;SDS_P2;PMS_P1;PMS_P2;Temp;Humidity;BMP_temperature;BMP_pressure;BME280_temperature;BME280_humidity;BME280_pressure;Samples;Min_cycle;Max_cycle;Signal;HPM_P1;HPM_P2
2021/05/31 00:01:01;;;;;;;7.30;4.72;;;;;;;12.89;100.00;102316.66;5253209;28;20074;-84
2021/05/31 00:03:31;;;;;;;9.23;5.18;;;;;;;12.81;100.00;102316.56;5254175;28;20091;-84
2021/05/31 00:06:02;;;;;;;11.70;5.07;;;;;;;12.79;100.00;102313.13;5254492;28;20032;-84
2021/05/31 00:08:33;;;;;;;7.72;4.68;;;;;;;12.86;100.00;102308.88;5253345;28;20320;-84
2021/05/31 00:11:04;;;;;;;10.63;4.70;;;;;;;12.89;100.00;102308.56;5253988;28;20039;-84
2021/05/31 00:13:34;;;;;;;9.38;4.32;;;;;;;12.92;100.00;102301.06;5253521;28;20032;-84
2021/05/31 00:16:05;;;;;;;8.43;4.68;;;;;;;12.93;100.00;102300.06;5244330;28;20500;-84
2021/05/31 00:18:35;;;;;;;8.35;5.10;;;;;;;12.94;100.00;102293.66;5254223;28;20020;-84
2021/05/31 00:21:06;;;;;;;8.77;4.75;;;;;;;12.92;100.00;102303.75;5253870;28;20028;-84
2021/05/31 00:23:36;;;;;;;6.45;4.63;;;;;;;12.88;100.00;102301.50;5253265;28;20044;-84
2021/05/31 00:26:07;;;;;;;10.73;5.30;;;;;;;12.80;100.00;102306.75;5254341;28;20384;-84
2021/05/31 00:28:37;;;;;;;12.65;5.43;;;;;;;12.73;100.00;102302.94;5253597;28;20039;-85
2021/05/31 00:31:08;;;;;;;8.77;5.25;;;;;;;12.72;100.00;102301.25;5253668;28;20035;-85
2021/05/31 00:33:40;;;;;;;8.07;4.78;;;;;;;12.73;100.00;102305.63;5253241;28;20162;-84
2021/05/31 00:36:10;;;;;;;11.48;5.22;;;;;;;12.73;100.00;102297.56;5253643;28;20020;-84
2021/05/31 00:38:41;;;;;;;9.93;4.82;;;;;;;12.67;100.00;102289.06;5253453;28;20506;-84
2021/05/31 00:41:12;;;;;;;11.15;5.35;;;;;;;12.72;100.00;102295.88;5252947;28;20025;-84
2021/05/31 00:43:42;;;;;;;11.15;5.63;;;;;;;12.72;100.00;102294.03;5253388;28;20016;-84
2021/05/31 00:46:14;;;;;;;8.52;5.22;;;;;;;12.71;100.00;102284.25;5252503;28;20387;-84
2021/05/31 00:48:44;;;;;;;10.13;5.25;;;;;;;12.65;100.00;102288.38;5252127;28;20111;-84
2021/05/31 00:51:15;;;;;;;10.65;4.95;;;;;;;12.57;100.00;102293.63;5252612;28;20062;-85
2021/05/31 00:53:45;;;;;;;13.23;5.63;;;;;;;12.47;100.00;102290.09;5251958;28;20070;-85
2021/05/31 00:56:16;;;;;;;7.78;5.43;;;;;;;12.39;100.00;102296.19;5251670;28;20392;-84
2021/05/31 00:58:47;;;;;;;11.80;4.97;;;;;;;12.30;100.00;102289.00;5252997;28;20051;-84
2021/05/31 01:01:17;;;;;;;13.90;6.55;;;;;;;12.18;100.00;102290.94;5251803;28;20020;-84
2021/05/31 01:03:49;;;;;;;12.73;5.93;;;;;;;12.06;100.00;102293.94;5251702;28;20029;-84
2021/05/31 01:06:25;;;;;;;12.50;5.43;;;;;;;11.96;100.00;102301.16;5251992;28;20025;-84
2021/05/31 01:09:02;;;;;;;9.25;5.70;;;;;;;11.81;100.00;102296.13;5266205;28;20182;-85
2021/05/31 01:11:49;;;;;;;9.77;5.95;;;;;;;11.60;100.00;102298.09;5250617;28;20392;-85
2021/05/31 01:14:24;;;;;;;9.35;5.85;;;;;;;11.47;100.00;102292.94;5251363;28;20171;-84
2021/05/31 01:17:14;;;;;;;11.43;6.10;;;;;;;11.39;100.00;102290.06;5251166;28;20109;-84
2021/05/31 01:20:03;;;;;;;11.35;5.32;;;;;;;11.26;100.00;102293.03;5250750;28;20084;-85
2021/05/31 01:22:36;;;;;;;10.88;6.05;;;;;;;11.18;100.00;102284.78;5252110;28;20039;-84
2021/05/31 01:25:17;;;;;;;9.48;6.10;;;;;;;11.05;100.00;102290.41;5252037;28;20025;-84
2021/05/31 01:27:57;;;;;;;11.35;5.80;;;;;;;11.01;100.00;102285.41;5252982;28;20032;-84
2021/05/31 01:30:28;;;;;;;13.52;6.47;;;;;;;11.01;100.00;102296.16;5251677;28;20025;-84
2021/05/31 01:33:01;;;;;;;13.45;6.15;;;;;;;11.02;100.00;102289.81;5245716;28;20030;-84
2021/05/31 01:35:34;;;;;;;10.07;6.32;;;;;;;11.04;100.00;102291.34;5244931;28;20518;-84
2021/05/31 01:38:05;;;;;;;11.57;6.28;;;;;;;11.03;100.00;102288.81;5232010;28;20029;-84
2021/05/31 01:40:36;;;;;;;13.93;6.78;;;;;;;10.97;100.00;102292.88;5244698;28;20040;-84
2021/05/31 01:43:08;;;;;;;12.50;7.40;;;;;;;10.94;100.00;102295.81;5258638;28;20052;-84
2021/05/31 01:45:42;;;;;;;12.75;6.35;;;;;;;10.90;100.00;102286.34;5266679;28;20028;-84
2021/05/31 01:48:13;;;;;;;11.45;6.55;;;;;;;10.90;100.00;102289.03;5267245;28;20028;-84
2021/05/31 01:50:47;;;;;;;14.80;7.45;;;;;;;10.87;100.00;102294.66;5266873;28;20024;-84
2021/05/31 01:53:19;;;;;;;12.20;6.68;;;;;;;10.82;100.00;102281.63;5259661;28;20024;-84
2021/05/31 01:55:51;;;;;;;15.93;6.90;;;;;;;10.89;100.00;102293.56;5249197;28;20494;-84
2021/05/31 01:58:23;;;;;;;11.02;6.88;;;;;;;10.97;100.00;102292.88;5248982;28;20127;-84
2021/05/31 02:00:54;;;;;;;13.45;6.55;;;;;;;11.02;100.00;102281.75;5248139;28;20028;-84
2021/05/31 02:03:24;;;;;;;16.17;7.38;;;;;;;11.01;100.00;102294.31;5248903;28;20450;-85
2021/05/31 02:05:55;;;;;;;15.32;7.32;;;;;;;10.96;100.00;102293.03;5248867;28;20016;-84
2021/05/31 02:08:26;;;;;;;13.63;6.53;;;;;;;10.87;100.00;102294.66;5249233;28;20131;-84
2021/05/31 02:11:06;;;;;;;14.40;7.50;;;;;;;10.72;100.00;102290.63;5248803;28;20028;-84
2021/05/31 02:13:41;;;;;;;12.60;6.78;;;;;;;10.58;100.00;102299.84;5248591;28;20483;-84
2021/05/31 02:16:20;;;;;;;15.83;6.27;;;;;;;10.44;100.00;102287.63;5237459;28;20387;-84
2021/05/31 02:18:52;;;;;;;13.40;7.30;;;;;;;10.40;100.00;102294.22;5235755;28;20035;-84
2021/05/31 02:21:24;;;;;;;16.98;7.07;;;;;;;10.37;100.00;102286.44;5250895;28;20032;-84
2021/05/31 02:23:55;;;;;;;14.88;8.43;;;;;;;10.28;100.00;102289.88;5252603;28;20036;-84
2021/05/31 02:26:26;;;;;;;13.05;7.07;;;;;;;10.21;100.00;102286.00;5251830;28;20024;-84
2021/05/31 02:28:57;;;;;;;17.25;7.68;;;;;;;10.12;100.00;102288.47;5252751;28;20027;-85
2021/05/31 02:31:28;;;;;;;12.82;7.90;;;;;;;10.06;100.00;102290.81;5251962;28;20025;-84
2021/05/31 02:33:59;;;;;;;13.57;7.40;;;;;;;9.98;100.00;102285.22;5254418;28;20059;-84
2021/05/31 02:36:30;;;;;;;12.30;6.93;;;;;;;9.92;100.00;102294.63;5255609;28;20031;-84
2021/05/31 02:39:01;;;;;;;12.95;6.95;;;;;;;9.89;100.00;102292.22;5255858;28;20029;-84
2021/05/31 02:41:31;;;;;;;15.50;8.25;;;;;;;9.83;100.00;102287.34;5255088;28;20043;-84
2021/05/31 02:44:02;;;;;;;13.00;7.90;;;;;;;9.72;100.00;102290.06;5255250;28;20043;-84
2021/05/31 02:46:32;;;;;;;14.73;7.03;;;;;;;9.68;100.00;102292.13;5255174;28;20025;-84
2021/05/31 02:49:03;;;;;;;15.82;7.97;;;;;;;9.63;100.00;102293.47;5255152;28;20028;-84
2021/05/31 02:51:35;;;;;;;17.40;8.95;;;;;;;9.54;100.00;102293.28;5255522;28;20021;-84
2021/05/31 02:54:07;;;;;;;16.65;8.15;;;;;;;9.44;100.00;102300.34;5255413;28;20031;-84
2021/05/31 02:56:37;;;;;;;16.17;9.55;;;;;;;9.37;100.00;102300.97;5270543;28;20494;-84
2021/05/31 02:59:08;;;;;;;13.07;7.18;;;;;;;9.21;100.00;102288.78;5254808;28;20056;-85
2021/05/31 03:01:38;;;;;;;14.95;7.95;;;;;;;9.16;100.00;102296.34;5252678;28;20029;-85
2021/05/31 03:04:09;;;;;;;14.65;8.02;;;;;;;9.10;100.00;102298.66;5255278;28;20032;-84
2021/05/31 03:06:39;;;;;;;12.10;7.30;;;;;;;9.07;100.00;102299.75;5276633;28;20052;-85
2021/05/31 03:09:10;;;;;;;16.60;8.82;;;;;;;9.00;100.00;102286.00;5262428;28;20031;-85
2021/05/31 03:11:40;;;;;;;18.30;8.40;;;;;;;9.00;100.00;102294.03;5261445;28;20032;-85
2021/05/31 03:14:11;;;;;;;19.45;9.10;;;;;;;8.99;100.00;102294.16;5260116;28;20032;-84
2021/05/31 03:16:41;;;;;;;18.65;9.38;;;;;;;8.96;100.00;102297.06;5244909;28;20053;-84
2021/05/31 03:19:11;;;;;;;15.55;9.25;;;;;;;8.88;100.00;102300.31;5249609;28;20476;-84
2021/05/31 03:21:42;;;;;;;16.30;8.82;;;;;;;8.79;100.00;102291.22;5258296;28;20078;-84
2021/05/31 03:24:12;;;;;;;17.60;8.90;;;;;;;8.73;100.00;102297.00;5258255;28;20084;-84
2021/05/31 03:26:43;;;;;;;23.42;10.50;;;;;;;8.74;100.00;102296.06;5257264;28;20025;-84
2021/05/31 03:29:13;;;;;;;19.70;9.18;;;;;;;8.78;100.00;102297.50;5257861;28;20161;-84
2021/05/31 03:31:44;;;;;;;15.85;8.32;;;;;;;8.74;100.00;102298.75;5256102;28;20169;-84
2021/05/31 03:34:15;;;;;;;18.30;9.85;;;;;;;8.71;100.00;102298.13;5257544;28;20017;-84
2021/05/31 03:36:45;;;;;;;18.55;8.70;;;;;;;8.67;100.00;102297.50;5272279;28;20035;-84
2021/05/31 03:39:16;;;;;;;17.02;10.40;;;;;;;8.63;100.00;102292.50;5257209;28;20031;-84
2021/05/31 03:41:46;;;;;;;21.00;9.93;;;;;;;8.61;100.00;102302.47;5256214;28;20407;-84
2021/05/31 03:44:17;;;;;;;19.70;9.32;;;;;;;8.57;100.00;102297.34;5251926;28;20032;-84
2021/05/31 03:46:47;;;;;;;19.50;9.32;;;;;;;8.60;100.00;102300.78;5247335;28;20032;-84
2021/05/31 03:49:18;;;;;;;19.63;9.23;;;;;;;8.67;100.00;102302.00;5256208;28;20067;-84
2021/05/31 03:51:48;;;;;;;17.55;9.95;;;;;;;8.72;100.00;102295.31;5255849;28;20016;-84
2021/05/31 03:54:19;;;;;;;19.65;10.02;;;;;;;8.80;100.00;102298.25;5256477;28;20249;-84
2021/05/31 03:56:49;;;;;;;24.85;10.90;;;;;;;8.85;100.00;102295.22;5256106;28;20077;-84
2021/05/31 03:59:20;;;;;;;25.15;10.57;;;;;;;8.90;100.00;102302.91;5256026;28;20052;-84
2021/05/31 04:01:51;;;;;;;19.75;10.50;;;;;;;9.01;100.00;102302.91;5255392;28;20036;-84
2021/05/31 04:04:22;;;;;;;26.70;11.80;;;;;;;9.12;100.00;102296.69;5255801;28;20081;-84
2021/05/31 04:07:23;;;;;;;23.90;9.90;;;;;;;9.21;100.00;102295.97;5255277;28;20511;-84
2021/05/31 04:12:32;;;;;;;23.17;10.82;;;;;;;9.48;100.00;102309.81;5254519;28;20025;-84
2021/05/31 04:15:04;;;;;;;20.70;10.98;;;;;;;9.55;100.00;102304.84;5255382;28;20027;-84
2021/05/31 04:17:35;;;;;;;19.67;10.68;;;;;;;9.66;100.00;102312.00;5253895;28;20577;-85
2021/05/31 04:20:06;;;;;;;24.50;11.27;;;;;;;9.71;100.00;102309.81;5254503;28;20720;-85
2021/05/31 04:22:36;;;;;;;24.48;11.60;;;;;;;9.85;100.00;102306.84;5253136;28;20059;-84
2021/05/31 04:25:08;;;;;;;22.40;11.00;;;;;;;9.91;100.00;102300.97;5240335;28;20032;-84
2021/05/31 04:27:39;;;;;;;23.15;11.43;;;;;;;10.03;100.00;102297.25;5253372;28;20063;-84
2021/05/31 04:30:10;;;;;;;22.80;11.70;;;;;;;10.09;100.00;102302.16;5253802;28;20033;-84
2021/05/31 04:32:41;;;;;;;23.02;11.57;;;;;;;10.23;100.00;102302.81;5253269;28;20112;-84
2021/05/31 04:35:11;;;;;;;21.02;11.50;;;;;;;10.35;100.00;102305.34;5252568;28;20066;-84
2021/05/31 04:37:42;;;;;;;24.67;10.43;;;;;;;10.48;100.00;102298.94;5251291;28;20031;-84
2021/05/31 04:40:13;;;;;;;24.20;12.05;;;;;;;10.53;100.00;102302.94;5251433;28;20024;-84
2021/05/31 04:42:43;;;;;;;26.00;11.70;;;;;;;10.64;100.00;102307.38;5238898;28;20376;-84
2021/05/31 04:45:14;;;;;;;25.52;11.48;;;;;;;10.74;100.00;102304.75;5252699;28;20031;-84
2021/05/31 04:47:44;;;;;;;22.52;11.57;;;;;;;10.87;100.00;102306.25;5251852;28;20032;-84
2021/05/31 04:50:15;;;;;;;21.83;10.45;;;;;;;10.96;100.00;102304.63;5252491;28;20028;-84
2021/05/31 04:52:46;;;;;;;24.25;11.48;;;;;;;11.01;100.00;102310.44;5251877;28;20033;-84
2021/05/31 04:55:18;;;;;;;22.75;11.18;;;;;;;11.07;100.00;102312.59;5251817;28;20024;-84
2021/05/31 04:57:48;;;;;;;27.75;12.00;;;;;;;11.18;100.00;102306.25;5252249;28;20365;-84
2021/05/31 05:00:19;;;;;;;25.30;11.70;;;;;;;11.31;100.00;102314.09;5251015;28;20039;-84
2021/05/31 05:02:49;;;;;;;21.50;10.85;;;;;;;11.44;100.00;102308.47;5252012;28;20460;-84
2021/05/31 05:05:20;;;;;;;25.75;11.63;;;;;;;11.47;100.00;102303.69;5250523;28;20023;-84
2021/05/31 05:07:50;;;;;;;21.08;11.82;;;;;;;11.56;100.00;102302.88;5250708;28;20519;-84
2021/05/31 05:10:22;;;;;;;29.17;11.85;;;;;;;11.55;100.00;102303.03;5251483;28;20028;-85
2021/05/31 05:12:53;;;;;;;21.98;11.43;;;;;;;11.62;100.00;102306.84;5249703;28;20368;-85
2021/05/31 05:15:25;;;;;;;23.70;11.77;;;;;;;11.70;100.00;102303.47;5244541;28;20035;-85
2021/05/31 05:17:56;;;;;;;26.30;11.68;;;;;;;11.79;100.00;102311.53;5241486;28;20439;-84
2021/05/31 05:20:29;;;;;;;26.25;12.68;;;;;;;12.14;100.00;102308.38;5249115;28;20024;-85
2021/05/31 05:23:00;;;;;;;24.48;11.00;;;;;;;13.07;100.00;102306.81;5246253;28;20024;-85
2021/05/31 05:25:31;;;;;;;18.10;10.15;;;;;;;14.73;100.00;102305.59;5246429;28;20020;-85
2021/05/31 05:28:01;;;;;;;19.23;9.93;;;;;;;16.64;100.00;102307.72;5257479;28;20024;-85
2021/05/31 05:30:33;;;;;;;17.83;9.07;;;;;;;18.34;100.00;102311.63;5247605;28;20028;-85
2021/05/31 05:33:03;;;;;;;12.82;8.35;;;;;;;19.42;100.00;102311.22;5244906;28;20032;-84
2021/05/31 05:35:44;;;;;;;19.17;10.38;;;;;;;19.42;96.49;102313.94;5244517;28;20403;-85
2021/05/31 05:43:32;;;;;;;13.57;8.43;;;;;;;21.50;62.24;102312.94;5245138;28;20028;-84
2021/05/31 05:48:46;;;;;;;12.77;8.52;;;;;;;22.30;60.16;102316.75;5245126;28;20032;-85
2021/05/31 05:51:18;;;;;;;14.52;8.50;;;;;;;21.76;61.68;102318.50;5244866;28;20416;-85
2021/05/31 05:53:48;;;;;;;13.73;8.73;;;;;;;22.25;58.41;102308.34;5244831;28;20029;-85
2021/05/31 05:56:21;;;;;;;12.52;8.65;;;;;;;22.55;58.75;102317.00;5247146;28;20025;-85
2021/05/31 05:58:53;;;;;;;16.15;8.75;;;;;;;22.81;54.90;102318.88;5248686;28;20028;-85
2021/05/31 06:01:24;;;;;;;14.07;9.10;;;;;;;22.53;57.77;102321.81;5248440;28;20086;-85
2021/05/31 06:03:55;;;;;;;13.10;8.18;;;;;;;23.10;53.00;102312.13;5248787;28;20035;-85
2021/05/31 06:06:26;;;;;;;13.70;8.70;;;;;;;23.42;52.48;102315.81;5248517;28;20055;-85
2021/05/31 06:08:56;;;;;;;12.43;8.48;;;;;;;23.37;51.74;102313.72;5237245;28;20017;-85
2021/05/31 06:11:27;;;;;;;15.65;9.38;;;;;;;22.70;55.99;102318.47;5248122;28;20020;-85
2021/05/31 06:13:57;;;;;;;11.38;7.47;;;;;;;23.85;50.80;102317.97;5248620;28;20437;-85
2021/05/31 06:16:28;;;;;;;14.48;8.88;;;;;;;23.72;51.56;102305.19;5237633;28;20017;-85
2021/05/31 06:18:58;;;;;;;16.63;8.80;;;;;;;22.97;55.74;102313.81;5248515;28;20617;-85
2021/05/31 06:21:29;;;;;;;12.68;8.20;;;;;;;23.71;53.63;102308.97;5248074;28;20052;-84
2021/05/31 06:23:59;;;;;;;14.73;8.48;;;;;;;23.80;51.97;102309.53;5247295;28;20036;-84
2021/05/31 06:26:30;;;;;;;13.25;7.60;;;;;;;23.89;51.49;102317.28;5248254;28;20062;-85
2021/05/31 06:29:01;;;;;;;12.88;8.40;;;;;;;23.70;53.53;102312.78;5248123;28;20040;-86
2021/05/31 06:31:32;;;;;;;11.38;7.80;;;;;;;24.02;50.86;102317.22;5247801;28;20020;-85
2021/05/31 06:34:02;;;;;;;12.75;7.57;;;;;;;24.38;48.87;102310.25;5248274;28;20029;-85
2021/05/31 06:36:38;;;;;;;11.75;7.68;;;;;;;24.56;47.44;102305.91;5250023;28;20026;-84
2021/05/31 06:39:11;;;;;;;14.80;9.02;;;;;;;23.29;52.73;102300.25;5249371;28;20450;-85
2021/05/31 06:41:41;;;;;;;15.10;7.78;;;;;;;22.88;52.98;102304.16;5247614;28;20032;-85
2021/05/31 06:44:12;;;;;;;12.40;8.15;;;;;;;22.49;56.68;102304.97;5247622;28;20035;-85
2021/05/31 06:46:43;;;;;;;11.55;7.47;;;;;;;22.15;56.05;102298.66;5247631;28;20031;-85
2021/05/31 06:49:14;;;;;;;11.27;7.72;;;;;;;21.58;57.42;102291.72;5263279;28;20043;-85
2021/05/31 06:51:45;;;;;;;13.55;7.55;;;;;;;21.12;60.52;102300.50;5247652;28;20024;-85
2021/05/31 06:54:15;;;;;;;20.52;9.20;;;;;;;20.55;74.06;102298.03;5234573;28;20490;-85
2021/05/31 06:56:46;;;;;;;13.57;7.53;;;;;;;20.29;75.92;102299.47;5246938;28;20032;-85
2021/05/31 06:59:16;;;;;;;11.55;7.30;;;;;;;20.06;75.99;102290.63;5247509;28;20072;-85
2021/05/31 07:01:47;;;;;;;14.13;8.05;;;;;;;19.84;86.81;102296.06;5247194;28;20032;-85
2021/05/31 07:04:18;;;;;;;12.50;7.03;;;;;;;19.78;83.60;102293.25;5247932;28;20028;-85
2021/05/31 07:06:49;;;;;;;14.43;7.40;;;;;;;19.64;89.26;102298.56;5245777;28;20032;-85
2021/05/31 07:09:19;;;;;;;13.02;7.30;;;;;;;19.38;87.58;102298.19;5247325;28;20025;-85
2021/05/31 07:11:50;;;;;;;12.80;7.18;;;;;;;19.54;92.72;102294.41;5247378;28;20067;-86
2021/05/31 07:14:22;;;;;;;15.23;6.95;;;;;;;19.63;100.00;102293.31;5247547;28;20020;-85
2021/05/31 07:16:54;;;;;;;16.17;6.57;;;;;;;19.78;83.70;102295.97;5246990;28;20445;-85
2021/05/31 07:19:25;;;;;;;11.98;7.18;;;;;;;19.41;88.28;102295.06;5247249;28;20479;-85
2021/05/31 07:21:55;;;;;;;11.73;6.60;;;;;;;19.71;83.86;102293.19;5247136;28;20043;-85
2021/05/31 07:24:26;;;;;;;16.77;6.90;;;;;;;19.85;88.45;102291.44;5247235;28;20020;-85
2021/05/31 07:26:57;;;;;;;12.95;7.30;;;;;;;19.87;85.02;102287.47;5246816;28;20024;-85
2021/05/31 07:29:27;;;;;;;10.68;6.88;;;;;;;20.09;88.34;102293.81;5246812;28;20404;-85
2021/05/31 07:31:58;;;;;;;14.30;7.55;;;;;;;20.44;79.76;102289.31;5246715;28;20442;-85
2021/05/31 07:34:28;;;;;;;13.38;7.03;;;;;;;20.39;70.40;102293.69;5246750;28;20020;-85
2021/05/31 07:36:59;;;;;;;15.18;7.18;;;;;;;20.44;71.42;102283.88;5246414;28;20060;-85
2021/05/31 07:39:31;;;;;;;9.65;5.97;;;;;;;20.65;67.93;102279.44;5246771;28;20407;-85
2021/05/31 07:42:02;;;;;;;7.05;5.78;;;;;;;20.82;68.37;102272.63;5246297;28;20070;-85
2021/05/31 07:44:33;;;;;;;10.63;6.10;;;;;;;20.62;71.65;102272.50;5233186;28;20073;-85
2021/05/31 07:47:04;;;;;;;12.50;6.13;;;;;;;20.66;77.02;102275.66;5246379;28;20699;-85
2021/05/31 07:49:34;;;;;;;12.52;5.47;;;;;;;20.90;68.10;102277.94;5247100;28;20105;-85
2021/05/31 07:52:09;;;;;;;10.20;5.10;;;;;;;21.05;66.57;102271.53;5246401;28;20099;-85
2021/05/31 07:54:39;;;;;;;8.43;5.22;;;;;;;21.21;69.28;102274.75;5246864;28;20055;-84
2021/05/31 07:57:10;;;;;;;9.52;5.63;;;;;;;21.57;66.11;102279.13;5245697;28;20104;-85
2021/05/31 07:59:41;;;;;;;8.98;4.70;;;;;;;21.73;64.72;102276.03;5246539;28;20036;-85
2021/05/31 08:02:12;;;;;;;9.90;5.50;;;;;;;21.71;63.64;102274.56;5246213;28;20513;-85
2021/05/31 08:04:43;;;;;;;8.10;4.65;;;;;;;21.78;62.48;102266.38;5246433;28;20043;-85
2021/05/31 08:07:13;;;;;;;6.95;4.80;;;;;;;21.76;65.51;102271.22;5246290;28;20383;-85
2021/05/31 08:09:45;;;;;;;9.68;5.40;;;;;;;21.84;60.53;102260.94;5245618;28;20028;-85
2021/05/31 08:12:16;;;;;;;8.65;4.50;;;;;;;21.75;59.75;102264.09;5246108;28;20055;-85
2021/05/31 08:14:46;;;;;;;6.97;4.50;;;;;;;21.64;62.16;102262.78;5246135;28;20616;-86
2021/05/31 08:17:17;;;;;;;6.57;4.28;;;;;;;21.71;58.38;102261.75;5261623;28;20016;-85
2021/05/31 08:19:47;;;;;;;5.72;3.88;;;;;;;21.74;57.90;102265.97;5245441;28;20028;-85
2021/05/31 08:22:18;;;;;;;8.88;4.05;;;;;;;21.91;51.05;102258.22;5245998;28;20036;-85
2021/05/31 08:24:48;;;;;;;6.88;4.00;;;;;;;21.93;55.59;102258.84;5245942;28;20499;-85
2021/05/31 08:27:19;;;;;;;7.60;3.70;;;;;;;22.14;56.61;102263.31;5245741;28;20031;-84
2021/05/31 08:29:49;;;;;;;7.35;3.50;;;;;;;22.17;51.27;102258.28;5245547;28;20028;-85
2021/05/31 08:32:20;;;;;;;7.07;3.88;;;;;;;22.20;51.72;102257.88;5245642;28;20021;-85
2021/05/31 08:34:51;;;;;;;3.90;3.08;;;;;;;22.22;51.78;102257.66;5245485;28;20031;-85
2021/05/31 08:37:21;;;;;;;4.35;3.30;;;;;;;22.52;53.86;102254.50;5261289;28;20123;-85
2021/05/31 08:39:54;;;;;;;4.40;3.05;;;;;;;22.89;50.92;102259.34;5245492;28;20044;-85
2021/05/31 08:42:24;;;;;;;7.65;3.47;;;;;;;23.18;50.17;102251.66;5245163;28;20056;-85
2021/05/31 08:44:55;;;;;;;5.85;3.42;;;;;;;23.15;48.73;102252.09;5245263;28;20048;-85
2021/05/31 08:47:27;;;;;;;5.68;3.10;;;;;;;23.10;46.05;102252.75;5245462;28;20506;-85
2021/05/31 08:49:58;;;;;;;5.30;2.90;;;;;;;23.34;44.73;102253.91;5245170;28;20464;-85
2021/05/31 08:52:28;;;;;;;4.00;2.70;;;;;;;23.43;45.70;102254.50;5245802;28;20100;-85
2021/05/31 08:54:59;;;;;;;6.43;3.25;;;;;;;23.10;46.35;102249.16;5245974;28;20555;-85
2021/05/31 08:57:29;;;;;;;4.50;2.95;;;;;;;23.17;47.48;102241.75;5245453;28;20033;-84
2021/05/31 09:00:00;;;;;;;7.15;3.42;;;;;;;22.90;46.50;102246.50;5245138;28;20024;-85
2021/05/31 09:02:33;;;;;;;7.57;3.60;;;;;;;22.59;46.70;102239.78;5245484;28;20427;-85
2021/05/31 09:05:05;;;;;;;5.35;2.90;;;;;;;23.23;47.38;102244.47;5245335;28;20044;-85
2021/05/31 09:07:36;;;;;;;7.00;3.15;;;;;;;23.53;46.04;102244.75;5245682;28;20475;-85
2021/05/31 09:10:07;;;;;;;6.53;2.83;;;;;;;23.63;44.91;102240.69;5245050;28;20028;-85
2021/05/31 09:12:38;;;;;;;5.20;3.22;;;;;;;23.93;44.14;102236.31;5245528;28;20047;-85
2021/05/31 09:15:11;;;;;;;5.30;2.92;;;;;;;24.11;45.02;102234.72;5245072;28;20035;-85
2021/05/31 09:17:41;;;;;;;5.43;3.35;;;;;;;23.97;43.57;102229.34;5245083;28;20032;-85
2021/05/31 09:20:13;;;;;;;4.38;3.10;;;;;;;23.96;45.41;102224.09;5243996;28;20476;-85
2021/05/31 09:22:46;;;;;;;6.15;3.60;;;;;;;24.08;43.23;102233.25;5244895;28;20386;-85
2021/05/31 09:25:36;;;;;;;6.60;3.53;;;;;;;23.92;47.83;102231.91;5245368;28;20029;-85
2021/05/31 09:28:12;;;;;;;5.25;3.35;;;;;;;24.14;47.88;102224.13;5244925;28;20036;-85
2021/05/31 09:30:44;;;;;;;4.40;3.10;;;;;;;24.76;44.04;102221.50;5246381;28;20028;-85
2021/05/31 09:33:16;;;;;;;9.63;3.80;;;;;;;24.88;42.11;102213.34;5249024;28;20020;-85
2021/05/31 09:35:47;;;;;;;5.88;3.10;;;;;;;24.69;42.23;102212.47;5248991;28;20028;-85
2021/05/31 09:38:18;;;;;;;6.65;3.55;;;;;;;24.69;44.27;102213.31;5249065;28;20433;-85
2021/05/31 09:40:50;;;;;;;8.38;3.47;;;;;;;24.16;44.71;102213.81;5248671;28;20024;-85
2021/05/31 09:43:25;;;;;;;6.63;3.40;;;;;;;23.81;45.29;102212.59;5248692;28;20025;-85
2021/05/31 09:45:56;;;;;;;6.40;3.50;;;;;;;24.36;43.89;102207.34;5248914;28;20027;-85
2021/05/31 09:48:32;;;;;;;5.30;3.40;;;;;;;24.74;46.23;102209.88;5248876;28;20012;-85
2021/05/31 09:51:03;;;;;;;9.18;3.40;;;;;;;24.84;43.14;102203.88;5235815;28;20032;-85
2021/05/31 09:53:36;;;;;;;13.30;3.50;;;;;;;25.43;40.77;102200.41;5248843;28;20414;-85
2021/05/31 09:56:14;;;;;;;7.45;3.40;;;;;;;25.47;42.15;102204.38;5248720;28;20476;-85
2021/05/31 09:58:49;;;;;;;5.15;3.70;;;;;;;25.15;42.81;102203.75;5248805;28;20066;-85
2021/05/31 10:01:34;;;;;;;6.63;3.83;;;;;;;25.55;43.04;102209.56;5248632;28;20032;-85
2021/05/31 10:04:17;;;;;;;7.55;3.83;;;;;;;25.62;41.63;102201.19;5235967;28;20025;-86
2021/05/31 10:06:53;;;;;;;6.93;3.38;;;;;;;25.37;41.33;102198.59;5248584;28;20029;-85
2021/05/31 10:09:24;;;;;;;7.40;3.15;;;;;;;25.26;39.19;102199.38;5248413;28;20093;-85
2021/05/31 10:11:56;;;;;;;5.57;3.95;;;;;;;25.01;40.15;102199.47;5248581;28;20446;-84
2021/05/31 10:14:27;;;;;;;6.63;3.85;;;;;;;24.47;43.42;102190.97;5248472;28;20141;-85
2021/05/31 10:16:59;;;;;;;6.88;3.55;;;;;;;24.27;44.49;102182.06;5248377;28;20032;-84
2021/05/31 10:19:31;;;;;;;6.35;3.63;;;;;;;24.72;45.61;102174.47;5248437;28;20056;-85
2021/05/31 10:22:02;;;;;;;8.18;3.60;;;;;;;24.86;43.82;102183.38;5250044;28;20025;-84
2021/05/31 10:24:34;;;;;;;9.60;3.60;;;;;;;24.77;43.85;102185.59;5248542;28;21618;-84
2021/05/31 10:27:08;;;;;;;5.95;3.38;;;;;;;24.82;40.07;102179.41;5247940;28;20395;-84
2021/05/31 10:29:42;;;;;;;5.13;3.67;;;;;;;24.41;41.07;102183.66;5248098;28;20032;-84
2021/05/31 10:32:13;;;;;;;6.57;3.97;;;;;;;24.37;41.84;102178.84;5248525;28;20036;-84
2021/05/31 10:34:52;;;;;;;7.22;3.67;;;;;;;24.78;39.92;102172.69;5247794;28;20085;-84
2021/05/31 10:37:27;;;;;;;6.13;3.70;;;;;;;24.96;42.95;102177.34;5248824;28;20074;-83
2021/05/31 10:40:10;;;;;;;7.45;3.50;;;;;;;25.05;41.87;102168.56;5248123;28;20028;-85
2021/05/31 10:42:48;;;;;;;7.40;3.55;;;;;;;24.88;41.00;102167.50;5247545;28;20052;-85
2021/05/31 10:45:28;;;;;;;7.03;3.78;;;;;;;24.75;40.32;102162.16;5248400;28;20035;-85
2021/05/31 10:48:05;;;;;;;8.68;3.35;;;;;;;24.33;42.14;102164.72;5235436;28;20060;-85
2021/05/31 10:50:44;;;;;;;7.47;3.75;;;;;;;24.15;43.81;102159.22;5247558;28;20020;-85
2021/05/31 10:55:55;;;;;;;3.50;3.20;;;;;;;23.91;42.42;102160.88;5247497;28;20040;-85
2021/05/31 10:58:35;;;;;;;8.50;3.95;;;;;;;23.95;44.79;102165.69;5247392;28;20418;-85
2021/05/31 11:01:10;;;;;;;7.50;3.85;;;;;;;24.00;46.26;102152.16;5236529;28;20074;-85
2021/05/31 11:04:00;;;;;;;;;;;;;;;24.59;43.35;102140.84;5248041;28;20031;-85
2021/05/31 11:06:42;;;;;;;6.18;3.53;;;;;;;24.31;40.45;102144.06;5247252;28;19923;-85
2021/05/31 11:09:21;;;;;;;11.38;4.00;;;;;;;23.86;42.20;102136.06;5247269;28;20574;-85
2021/05/31 11:11:54;;;;;;;5.38;3.47;;;;;;;23.59;45.36;102149.06;5247485;28;20028;-85
2021/05/31 11:14:43;;;;;;;7.15;3.47;;;;;;;23.51;43.30;102148.28;5247308;28;20082;-85
2021/05/31 11:17:16;;;;;;;5.50;3.45;;;;;;;23.59;43.87;102143.59;5235146;28;20055;-85
2021/05/31 11:19:50;;;;;;;6.10;3.28;;;;;;;23.42;41.24;102137.81;5245832;28;20104;-85
2021/05/31 11:22:24;;;;;;;5.57;3.30;;;;;;;23.62;44.82;102127.56;5247586;28;20031;-85
2021/05/31 11:24:59;;;;;;;11.93;3.60;;;;;;;24.07;41.26;102119.19;5247166;28;20111;-85
2021/05/31 11:27:33;;;;;;;5.93;3.00;;;;;;;24.18;44.36;102121.19;5246608;28;20028;-85
2021/05/31 11:30:05;;;;;;;6.53;3.83;;;;;;;24.28;42.07;102112.44;5247008;28;20031;-85
2021/05/31 11:32:37;;;;;;;5.22;3.45;;;;;;;24.53;43.02;102115.16;5247168;28;20487;-85
2021/05/31 11:35:10;;;;;;;5.70;3.22;;;;;;;24.91;42.44;102106.69;5246948;28;20078;-85
2021/05/31 11:37:42;;;;;;;5.57;2.95;;;;;;;25.15;41.52;102107.66;5246901;28;20025;-85
2021/05/31 11:40:20;;;;;;;6.82;3.05;;;;;;;25.46;41.72;102098.31;5246398;28;20029;-85
2021/05/31 11:42:54;;;;;;;5.03;2.95;;;;;;;25.79;39.96;102097.78;5248444;28;20032;-85
2021/05/31 11:45:26;;;;;;;4.43;2.97;;;;;;;25.57;40.83;102093.91;5249115;28;20024;-84
2021/05/31 11:48:00;;;;;;;5.82;3.30;;;;;;;25.75;38.94;102101.22;5249346;28;20032;-85
2021/05/31 11:50:34;;;;;;;4.72;2.85;;;;;;;26.09;35.87;102092.16;5247814;28;20032;-84
2021/05/31 11:53:04;;;;;;;5.22;3.17;;;;;;;26.05;41.72;102084.63;5247463;28;20407;-85